createdAt,value
2017-11-16T00:02:02.068Z,25.00
2017-11-16T00:04:30.209Z,25.00
2017-11-16T00:06:58.496Z,24.90
2017-11-16T00:09:27.213Z,24.90
2017-11-16T00:11:55.928Z,24.80
2017-11-16T00:14:25.353Z,24.60
2017-11-16T00:16:54.732Z,24.60
2017-11-16T00:19:23.662Z,24.60
2017-11-16T00:21:51.860Z,24.60
2017-11-16T00:24:19.968Z,24.70
2017-11-16T00:26:49.313Z,24.70
2017-11-16T00:29:18.090Z,24.70
2017-11-16T00:31:46.893Z,24.70
2017-11-16T00:34:15.890Z,24.70
2017-11-16T00:36:44.083Z,24.70
2017-11-16T00:39:12.157Z,24.70
2017-11-16T00:41:41.012Z,24.70
2017-11-16T00:44:09.921Z,24.70
2017-11-16T00:46:37.995Z,24.70
2017-11-16T00:49:06.625Z,24.70
2017-11-16T00:51:34.821Z,24.70
2017-11-16T00:54:03.729Z,24.70
2017-11-16T00:56:31.796Z,24.70
2017-11-16T00:59:00.734Z,24.70
2017-11-16T01:01:29.398Z,24.70
2017-11-16T01:03:57.975Z,24.60
2017-11-16T01:06:26.821Z,24.60
2017-11-16T01:08:55.011Z,24.60
2017-11-16T01:11:23.975Z,24.60
2017-11-16T01:13:52.718Z,24.60
2017-11-16T01:16:21.425Z,24.60
2017-11-16T01:18:50.244Z,24.60
2017-11-16T01:21:18.435Z,24.50
2017-11-16T01:23:46.489Z,24.40
2017-11-16T01:26:15.189Z,24.20
2017-11-16T01:28:44.083Z,24.00
2017-11-16T01:31:12.599Z,24.00
2017-11-16T01:33:42.349Z,24.10
2017-11-16T01:36:11.392Z,24.10
2017-11-16T01:38:40.824Z,24.20
2017-11-16T01:41:11.320Z,24.10
2017-11-16T01:43:40.265Z,24.00
2017-11-16T01:46:09.002Z,24.00
2017-11-16T01:48:38.316Z,23.90
2017-11-16T01:51:07.217Z,23.90
2017-11-16T01:53:36.112Z,23.90
2017-11-16T01:56:04.293Z,23.90
2017-11-16T01:58:32.501Z,24.00
2017-11-16T02:01:01.379Z,24.00
2017-11-16T02:03:29.519Z,23.90
2017-11-16T02:05:58.845Z,23.70
2017-11-16T02:08:27.013Z,23.70
2017-11-16T02:10:55.179Z,23.70
2017-11-16T02:13:24.000Z,23.60
2017-11-16T02:15:52.348Z,23.60
2017-11-16T02:18:20.542Z,23.70
2017-11-16T02:20:49.354Z,23.70
2017-11-16T02:23:17.652Z,23.70
2017-11-16T02:25:45.826Z,23.70
2017-11-16T02:28:14.145Z,23.70
2017-11-16T02:30:43.810Z,23.80
2017-11-16T02:33:12.496Z,23.80
2017-11-16T02:35:42.082Z,23.80
2017-11-16T02:38:10.783Z,23.70
2017-11-16T02:40:39.097Z,23.80
2017-11-16T02:43:08.546Z,23.80
2017-11-16T02:45:37.955Z,23.80
2017-11-16T02:48:06.446Z,23.80
2017-11-16T02:50:35.453Z,23.80
2017-11-16T02:53:03.676Z,23.80
2017-11-16T02:55:32.693Z,23.80
2017-11-16T02:58:01.394Z,23.80
2017-11-16T03:00:30.025Z,23.90
2017-11-16T03:02:58.123Z,24.00
2017-11-16T03:05:26.567Z,24.00
2017-11-16T03:10:28.987Z,24.10
2017-11-16T03:12:57.822Z,24.10
2017-11-16T03:15:25.997Z,24.10
2017-11-16T03:18:19.588Z,24.10
2017-11-16T03:23:25.701Z,24.20
2017-11-16T03:25:54.784Z,24.50
2017-11-16T03:28:23.198Z,24.40
2017-11-16T03:30:52.127Z,24.80
2017-11-16T03:33:20.294Z,25.90
2017-11-16T03:35:49.062Z,27.10
2017-11-16T03:38:17.381Z,27.70
2017-11-16T03:40:45.555Z,28.10
2017-11-16T03:43:13.720Z,28.30
2017-11-16T03:45:42.017Z,27.70
2017-11-16T03:48:10.718Z,27.10
2017-11-16T03:50:39.567Z,26.70
2017-11-16T03:53:08.377Z,26.60
2017-11-16T03:55:36.538Z,26.60
2017-11-16T03:58:04.638Z,26.70
2017-11-16T04:00:32.858Z,26.50
2017-11-16T04:03:01.722Z,26.50
2017-11-16T04:05:31.105Z,26.50
2017-11-16T04:07:59.893Z,26.50
2017-11-16T04:10:29.013Z,26.70
2017-11-16T04:12:57.851Z,26.80
2017-11-16T04:15:26.126Z,26.80
2017-11-16T04:17:54.758Z,27.00
2017-11-16T04:20:23.689Z,26.90
2017-11-16T04:22:52.693Z,27.00
2017-11-16T04:25:20.776Z,27.40
2017-11-16T04:27:48.990Z,27.60
2017-11-16T04:30:17.313Z,27.80
2017-11-16T04:32:45.949Z,27.90
2017-11-16T04:35:14.749Z,28.00
2017-11-16T04:37:43.745Z,28.00
2017-11-16T04:40:12.357Z,28.20
2017-11-16T04:42:40.529Z,28.00
2017-11-16T04:45:09.538Z,27.90
2017-11-16T04:47:38.346Z,27.90
2017-11-16T04:50:07.265Z,27.90
2017-11-16T04:52:35.931Z,28.20
2017-11-16T04:55:04.691Z,28.30
2017-11-16T04:57:32.913Z,28.30
2017-11-16T05:00:01.197Z,28.40
2017-11-16T05:02:29.842Z,28.50
2017-11-16T05:04:58.772Z,28.70
2017-11-16T05:07:27.642Z,29.00
2017-11-16T05:09:56.457Z,29.30
2017-11-16T05:12:24.554Z,29.50
2017-11-16T05:14:52.843Z,29.50
2017-11-16T05:17:22.291Z,29.60
2017-11-16T05:19:51.206Z,29.60
2017-11-16T05:22:19.451Z,29.90
2017-11-16T05:24:47.598Z,29.90
2017-11-16T05:27:16.502Z,30.30
2017-11-16T05:29:44.825Z,30.20
2017-11-16T05:32:13.014Z,30.10
2017-11-16T05:34:41.169Z,29.90
2017-11-16T05:37:09.393Z,30.10
2017-11-16T05:39:38.479Z,30.60
2017-11-16T05:42:06.570Z,30.50
2017-11-16T05:44:35.602Z,30.80
2017-11-16T05:47:03.681Z,30.80
2017-11-16T05:49:32.254Z,31.00
2017-11-16T05:52:01.029Z,31.10
2017-11-16T05:54:29.788Z,31.00
2017-11-16T05:56:58.634Z,31.20
2017-11-16T05:59:26.886Z,31.20
2017-11-16T06:01:55.010Z,31.30
2017-11-16T06:04:23.223Z,31.10
2017-11-16T06:06:52.808Z,31.10
2017-11-16T06:09:21.480Z,31.10
2017-11-16T06:11:50.217Z,30.90
2017-11-16T06:14:18.473Z,31.10
2017-11-16T06:16:47.430Z,31.30
2017-11-16T06:19:15.607Z,31.20
2017-11-16T06:21:44.365Z,31.40
2017-11-16T06:24:13.056Z,31.60
2017-11-16T06:26:41.125Z,31.90
2017-11-16T06:29:09.423Z,31.80
2017-11-16T06:31:37.538Z,31.60
2017-11-16T06:34:06.925Z,32.20
2017-11-16T06:36:35.861Z,32.20
2017-11-16T06:39:05.018Z,32.30
2017-11-16T06:41:33.993Z,32.40
2017-11-16T06:44:02.198Z,32.00
2017-11-16T06:46:31.033Z,31.90
2017-11-16T06:48:59.761Z,31.90
2017-11-16T06:51:28.718Z,31.80
2017-11-16T06:53:57.414Z,31.80
2017-11-16T06:56:26.067Z,31.80
2017-11-16T06:58:54.871Z,31.70
2017-11-16T07:01:23.023Z,31.70
2017-11-16T07:03:52.565Z,31.70
2017-11-16T07:06:21.562Z,31.70
2017-11-16T07:08:50.377Z,31.90
2017-11-16T07:11:18.925Z,31.80
2017-11-16T07:13:47.769Z,31.70
2017-11-16T07:16:15.856Z,31.70
2017-11-16T07:18:44.674Z,32.00
2017-11-16T07:21:12.875Z,32.00
2017-11-16T07:23:41.033Z,32.10
2017-11-16T07:26:09.181Z,32.20
2017-11-16T07:28:38.197Z,32.00
2017-11-16T07:31:06.349Z,31.90
2017-11-16T07:33:35.190Z,31.90
2017-11-16T07:36:03.482Z,31.90
2017-11-16T07:38:32.242Z,32.10
2017-11-16T07:41:01.067Z,32.10
2017-11-16T07:43:30.122Z,32.10
2017-11-16T07:45:58.209Z,32.10
2017-11-16T07:48:26.517Z,31.90
2017-11-16T07:50:55.520Z,31.90
2017-11-16T07:53:24.364Z,32.00
2017-11-16T07:55:52.951Z,32.20
2017-11-16T07:58:21.734Z,32.30
2017-11-16T08:00:50.266Z,32.20
2017-11-16T08:03:18.418Z,32.30
2017-11-16T08:05:47.068Z,32.20
2017-11-16T08:08:16.647Z,32.30
2017-11-16T08:10:45.994Z,32.40
2017-11-16T08:13:14.261Z,32.40
2017-11-16T08:15:42.373Z,32.40
2017-11-16T08:18:10.454Z,32.30
2017-11-16T08:20:38.646Z,32.20
2017-11-16T08:23:07.181Z,32.30
2017-11-16T08:25:35.260Z,32.30
2017-11-16T08:28:04.275Z,32.60
2017-11-16T08:30:32.443Z,32.40
2017-11-16T08:33:00.522Z,32.30
2017-11-16T08:35:28.857Z,32.20
2017-11-16T08:37:56.956Z,32.30
2017-11-16T08:40:25.118Z,32.40
2017-11-16T08:55:58.617Z,32.10
2017-11-16T08:58:27.189Z,32.00
2017-11-16T09:00:56.234Z,31.90
2017-11-16T09:03:24.624Z,32.00
2017-11-16T09:05:52.957Z,32.00
2017-11-16T09:08:21.744Z,31.90
2017-11-16T09:10:50.521Z,32.20
2017-11-16T09:13:18.703Z,32.10
2017-11-16T09:15:47.340Z,32.10
2017-11-16T09:18:16.281Z,32.00
2017-11-16T09:20:44.470Z,32.00
2017-11-16T09:23:13.150Z,32.20
2017-11-16T09:25:41.924Z,32.20
2017-11-16T09:28:10.922Z,32.00
2017-11-16T09:30:39.057Z,31.90
2017-11-16T09:33:07.441Z,32.00
2017-11-16T09:35:36.385Z,31.80
2017-11-16T09:38:04.474Z,31.80
2017-11-16T09:40:33.274Z,31.80
2017-11-16T09:43:01.357Z,31.80
2017-11-16T09:45:29.464Z,31.80
2017-11-16T09:47:57.802Z,31.60
2017-11-16T09:50:25.927Z,31.50
2017-11-16T09:52:54.118Z,31.60
2017-11-16T09:55:22.457Z,31.70
2017-11-16T09:57:52.050Z,31.40
2017-11-16T10:00:20.740Z,31.40
2017-11-16T10:02:48.935Z,31.50
2017-11-16T10:05:17.814Z,31.40
2017-11-16T10:07:45.893Z,31.40
2017-11-16T10:10:14.910Z,31.50
2017-11-16T10:12:43.570Z,31.50
2017-11-16T10:15:12.908Z,31.20
2017-11-16T10:17:41.097Z,31.20
2017-11-16T10:20:09.181Z,31.20
2017-11-16T10:22:37.258Z,31.20
2017-11-16T10:25:05.530Z,31.20
2017-11-16T10:27:33.607Z,31.10
2017-11-16T10:30:02.382Z,31.00
2017-11-16T10:32:30.666Z,31.00
2017-11-16T10:34:58.767Z,30.90
2017-11-16T10:37:26.931Z,30.90
2017-11-16T10:39:55.163Z,30.80
2017-11-16T10:42:23.766Z,30.80
2017-11-16T10:44:52.386Z,30.80
2017-11-16T10:47:21.231Z,30.80
2017-11-16T10:49:49.362Z,30.70
2017-11-16T10:52:17.562Z,30.70
2017-11-16T10:54:46.527Z,30.70
2017-11-16T10:57:15.334Z,30.70
2017-11-16T10:59:44.874Z,30.60
2017-11-16T11:02:13.557Z,30.60
2017-11-16T11:04:41.627Z,30.50
2017-11-16T11:07:09.777Z,30.40
2017-11-16T11:09:38.844Z,30.50
2017-11-16T11:12:07.635Z,30.50
2017-11-16T11:14:36.268Z,31.20
2017-11-16T11:17:06.035Z,31.20
2017-11-16T11:19:34.212Z,31.10
2017-11-16T11:22:02.499Z,31.00
2017-11-16T11:24:30.882Z,31.00
2017-11-16T11:26:59.131Z,30.90
2017-11-16T11:29:27.305Z,30.80
2017-11-16T11:31:57.346Z,30.50
2017-11-16T11:34:25.550Z,30.50
2017-11-16T11:36:54.442Z,30.50
2017-11-16T11:39:23.374Z,30.50
2017-11-16T11:41:52.002Z,30.50
2017-11-16T11:44:20.119Z,30.40
2017-11-16T11:46:48.396Z,30.40
2017-11-16T11:49:17.207Z,30.30
2017-11-16T11:51:45.362Z,30.20
2017-11-16T11:54:13.646Z,30.30
2017-11-16T11:56:41.799Z,30.40
2017-11-16T11:59:10.606Z,30.30
2017-11-16T12:01:39.554Z,30.20
2017-11-16T12:04:07.847Z,30.20
2017-11-16T12:06:36.797Z,30.10
2017-11-16T12:09:05.318Z,30.10
2017-11-16T12:11:34.142Z,30.00
2017-11-16T12:14:02.297Z,30.00
2017-11-16T12:16:31.232Z,30.10
2017-11-16T12:18:59.312Z,30.10
2017-11-16T12:21:27.399Z,30.10
2017-11-16T12:23:55.687Z,29.90
2017-11-16T12:26:23.775Z,29.80
2017-11-16T12:28:52.722Z,29.80
2017-11-16T12:31:21.247Z,29.80
2017-11-16T12:33:49.374Z,29.80
2017-11-16T12:36:17.662Z,29.70
2017-11-16T12:38:46.190Z,29.70
2017-11-16T12:41:15.026Z,29.40
2017-11-16T12:43:43.166Z,29.50
2017-11-16T12:46:12.379Z,29.50
2017-11-16T12:48:40.506Z,29.50
2017-11-16T12:51:08.645Z,29.40
2017-11-16T12:53:37.086Z,29.40
2017-11-16T12:56:05.906Z,29.40
2017-11-16T12:58:34.089Z,29.40
2017-11-16T13:01:02.378Z,29.40
2017-11-16T13:03:30.579Z,29.30
2017-11-16T13:05:58.736Z,29.30
2017-11-16T13:08:26.925Z,29.30
2017-11-16T13:10:55.062Z,29.20
2017-11-16T13:13:23.210Z,29.20
2017-11-16T13:15:52.238Z,29.10
2017-11-16T13:18:20.505Z,29.00
2017-11-16T13:20:48.565Z,29.00
2017-11-16T13:23:17.573Z,29.00
2017-11-16T13:25:45.649Z,29.00
2017-11-16T13:28:13.789Z,28.90
2017-11-16T13:30:42.062Z,29.00
2017-11-16T13:33:11.551Z,28.90
2017-11-16T13:35:41.186Z,28.80
2017-11-16T13:38:10.144Z,28.80
2017-11-16T13:40:38.798Z,28.80
2017-11-16T13:43:07.442Z,28.70
2017-11-16T13:45:36.493Z,28.70
2017-11-16T13:48:05.073Z,28.70
2017-11-16T13:50:33.249Z,28.70
2017-11-16T13:53:01.530Z,28.70
2017-11-16T13:55:29.689Z,28.70
2017-11-16T13:57:57.766Z,28.70
2017-11-16T14:00:26.150Z,28.70
2017-11-16T14:02:54.326Z,28.60
2017-11-16T14:05:22.612Z,28.70
2017-11-16T14:07:50.893Z,28.70
2017-11-16T14:10:18.990Z,28.70
2017-11-16T14:12:47.205Z,28.60
2017-11-16T14:15:16.134Z,28.60
2017-11-16T14:17:44.391Z,28.60
2017-11-16T14:20:12.549Z,28.60
2017-11-16T14:22:41.488Z,28.60
2017-11-16T14:25:09.680Z,28.50
2017-11-16T14:27:37.841Z,28.50
2017-11-16T14:30:06.146Z,28.50
2017-11-16T14:32:34.222Z,28.50
2017-11-16T14:35:02.374Z,28.50
2017-11-16T14:37:30.650Z,28.50
2017-11-16T14:39:58.743Z,28.60
2017-11-16T14:42:26.933Z,28.60
2017-11-16T14:44:55.957Z,28.60
2017-11-16T14:47:24.138Z,28.60
2017-11-16T14:49:52.345Z,28.50
2017-11-16T14:52:20.547Z,28.40
2017-11-16T14:54:48.730Z,28.50
2017-11-16T14:57:16.814Z,28.50
2017-11-16T14:59:45.764Z,28.50
2017-11-16T15:02:13.922Z,28.50
2017-11-16T15:04:42.086Z,28.50
2017-11-16T15:07:10.508Z,28.40
2017-11-16T15:09:38.660Z,28.40
2017-11-16T15:12:06.822Z,28.40
2017-11-16T15:14:35.112Z,28.30
2017-11-16T15:17:03.260Z,28.40
2017-11-16T15:19:31.414Z,28.40
2017-11-16T15:22:00.458Z,28.40
2017-11-16T15:24:28.655Z,28.40
2017-11-16T15:26:56.809Z,28.40
2017-11-16T15:29:25.082Z,28.40
2017-11-16T15:31:53.381Z,28.40
2017-11-16T15:34:21.532Z,28.40
2017-11-16T15:36:49.790Z,28.40
2017-11-16T15:39:18.026Z,28.30
2017-11-16T15:41:46.179Z,28.30
2017-11-16T15:44:14.375Z,28.30
2017-11-16T15:46:42.526Z,28.30
2017-11-16T15:49:10.672Z,28.30
2017-11-16T15:51:38.951Z,28.20
2017-11-16T15:54:07.025Z,28.20
2017-11-16T15:56:35.097Z,28.20
2017-11-16T15:59:03.299Z,28.00
2017-11-16T16:01:31.446Z,28.10
2017-11-16T16:04:00.251Z,28.00
2017-11-16T16:06:28.917Z,28.00
2017-11-16T16:08:57.716Z,27.90
2017-11-16T16:11:26.550Z,27.90
2017-11-16T16:13:54.839Z,27.90
2017-11-16T16:16:23.001Z,27.80
2017-11-16T16:18:51.682Z,27.90
2017-11-16T16:21:20.548Z,27.90
2017-11-16T16:23:49.339Z,27.80
2017-11-16T16:26:18.253Z,27.70
2017-11-16T16:28:46.454Z,27.70
2017-11-16T16:31:14.605Z,27.70
2017-11-16T16:33:43.196Z,27.70
2017-11-16T16:36:11.750Z,27.70
2017-11-16T16:38:40.625Z,27.70
2017-11-16T16:41:08.694Z,27.70
2017-11-16T16:43:36.962Z,27.70
2017-11-16T16:46:05.782Z,27.50
2017-11-16T16:48:34.354Z,27.50
2017-11-16T16:51:03.039Z,27.50
2017-11-16T16:53:31.691Z,27.60
2017-11-16T16:55:59.843Z,27.60
2017-11-16T16:58:28.113Z,27.60
2017-11-16T17:00:56.195Z,27.70
2017-11-16T17:03:24.790Z,27.60
2017-11-16T17:05:53.682Z,27.60
2017-11-16T17:08:22.566Z,27.60
2017-11-16T17:10:51.453Z,27.50
2017-11-16T17:13:19.700Z,27.40
2017-11-16T17:15:47.853Z,27.40
2017-11-16T17:18:17.539Z,27.40
2017-11-16T17:20:47.022Z,27.30
2017-11-16T17:23:15.111Z,27.30
2017-11-16T17:25:43.683Z,27.30
2017-11-16T17:28:12.530Z,27.30
2017-11-16T17:30:40.761Z,27.40
2017-11-16T17:33:08.842Z,27.40
2017-11-16T17:35:37.839Z,27.40
2017-11-16T17:38:07.295Z,27.50
2017-11-16T17:40:37.018Z,27.50
2017-11-16T17:43:05.218Z,27.50
2017-11-16T17:45:33.438Z,27.40
2017-11-16T17:48:01.507Z,27.40
2017-11-16T17:50:29.689Z,27.40
2017-11-16T17:52:58.341Z,27.50
2017-11-16T17:55:26.413Z,27.40
2017-11-16T17:57:55.852Z,27.40
2017-11-16T18:00:24.038Z,27.40
2017-11-16T18:02:52.189Z,27.30
2017-11-16T18:05:21.123Z,27.40
2017-11-16T18:07:49.261Z,27.40
2017-11-16T18:10:18.080Z,27.30
2017-11-16T18:12:47.175Z,27.30
2017-11-16T18:15:15.329Z,27.30
2017-11-16T18:17:43.481Z,27.30
2017-11-16T18:20:12.411Z,27.30
2017-11-16T18:22:41.070Z,27.30
2017-11-16T18:25:10.408Z,27.20
2017-11-16T18:27:38.820Z,27.20
2017-11-16T18:30:06.983Z,27.20
2017-11-16T18:32:35.053Z,27.20
2017-11-16T18:35:03.865Z,27.10
2017-11-16T18:37:32.638Z,27.10
2017-11-16T18:40:01.205Z,27.10
2017-11-16T18:42:29.989Z,27.10
2017-11-16T18:44:58.614Z,27.20
2017-11-16T18:47:26.899Z,27.10
2017-11-16T18:49:55.867Z,27.10
2017-11-16T18:52:24.573Z,27.10
2017-11-16T18:54:53.219Z,27.00
2017-11-16T18:57:21.931Z,27.00
2017-11-16T18:59:50.564Z,26.90
2017-11-16T19:02:19.451Z,26.90
2017-11-16T19:04:48.393Z,26.90
2017-11-16T19:07:17.105Z,26.90
2017-11-16T19:09:45.837Z,26.90
2017-11-16T19:12:15.018Z,26.90
2017-11-16T19:14:43.890Z,26.80
2017-11-16T19:17:12.052Z,26.70
2017-11-16T19:19:40.345Z,26.60
2017-11-16T19:22:08.990Z,26.50
2017-11-16T19:24:37.646Z,26.50
2017-11-16T19:27:06.406Z,26.50
2017-11-16T19:29:35.193Z,26.60
2017-11-16T19:32:03.944Z,26.70
2017-11-16T19:34:32.149Z,26.60
2017-11-16T19:37:00.221Z,26.60
2017-11-16T19:39:28.758Z,26.50
2017-11-16T19:41:57.501Z,26.40
2017-11-16T19:44:26.863Z,26.50
2017-11-16T19:46:55.431Z,26.50
2017-11-16T19:49:23.622Z,26.50
2017-11-16T19:51:51.694Z,26.50
2017-11-16T19:54:20.513Z,26.60
2017-11-16T19:56:49.505Z,26.50
2017-11-16T19:59:17.951Z,26.60
2017-11-16T20:01:46.105Z,26.60
2017-11-16T20:04:15.110Z,26.50
2017-11-16T20:06:43.178Z,26.50
2017-11-16T20:09:12.578Z,26.50
2017-11-16T20:11:41.390Z,26.50
2017-11-16T20:14:09.970Z,26.50
2017-11-16T20:16:38.814Z,26.50
2017-11-16T20:19:07.002Z,26.50
2017-11-16T20:21:35.810Z,26.50
2017-11-16T20:24:05.270Z,26.50
2017-11-16T20:26:34.033Z,26.50
2017-11-16T20:29:02.713Z,26.50
2017-11-16T20:31:31.412Z,26.40
2017-11-16T20:33:59.671Z,26.50
2017-11-16T20:36:27.962Z,26.50
2017-11-16T20:39:13.299Z,26.50
2017-11-16T20:41:47.790Z,26.50
2017-11-16T20:44:31.224Z,26.50
2017-11-16T20:47:18.774Z,26.40
2017-11-16T20:50:04.490Z,26.40
2017-11-16T20:52:36.676Z,26.40
2017-11-16T20:55:05.460Z,26.40
2017-11-16T20:57:34.317Z,26.40
2017-11-16T21:00:03.651Z,26.40
2017-11-16T21:02:32.463Z,26.40
2017-11-16T21:05:00.546Z,26.30
2017-11-16T21:07:28.623Z,26.30
2017-11-16T21:09:57.304Z,26.40
2017-11-16T21:12:25.372Z,26.40
2017-11-16T21:14:54.085Z,26.20
2017-11-16T21:17:22.406Z,26.20
2017-11-16T21:19:51.237Z,26.20
2017-11-16T21:22:19.365Z,26.10
2017-11-16T21:24:48.377Z,26.20
2017-11-16T21:27:16.897Z,26.20
2017-11-16T21:29:45.463Z,26.10
2017-11-16T21:32:14.350Z,26.20
2017-11-16T21:34:42.502Z,26.10
2017-11-16T21:37:10.653Z,26.10
2017-11-16T21:39:39.610Z,26.10
2017-11-16T21:42:08.210Z,26.10
2017-11-16T21:44:36.850Z,26.20
2017-11-16T21:47:05.797Z,26.10
2017-11-16T21:49:33.874Z,26.10
2017-11-16T21:52:01.958Z,26.10
2017-11-16T21:54:30.973Z,26.10
2017-11-16T21:57:00.286Z,26.10
2017-11-16T21:59:28.942Z,26.10
2017-11-16T22:01:58.273Z,26.10
2017-11-16T22:04:26.978Z,26.10
2017-11-16T22:06:55.132Z,26.10
2017-11-16T22:09:23.333Z,26.00
2017-11-16T22:11:51.910Z,26.00
2017-11-16T22:14:20.640Z,26.00
2017-11-16T22:16:48.921Z,26.00
2017-11-16T22:19:17.658Z,25.90
2017-11-16T22:21:45.814Z,25.90
2017-11-16T22:24:14.738Z,25.80
2017-11-16T22:26:43.643Z,25.80
2017-11-16T22:29:12.223Z,25.80
2017-11-16T22:31:41.110Z,25.70
2017-11-16T22:34:09.839Z,25.80
2017-11-16T22:36:38.009Z,25.80
2017-11-16T22:39:06.220Z,25.80
2017-11-16T22:41:34.883Z,25.80
2017-11-16T22:44:03.705Z,25.80
2017-11-16T22:46:32.230Z,25.80
2017-11-16T22:49:00.934Z,25.80
2017-11-16T22:51:29.118Z,25.80
2017-11-16T22:53:58.053Z,25.70
2017-11-16T22:56:26.199Z,25.70
2017-11-16T22:58:54.926Z,25.60
2017-11-16T23:01:23.416Z,25.70
2017-11-16T23:03:52.177Z,25.70
2017-11-16T23:06:20.321Z,25.70
2017-11-16T23:08:48.605Z,25.70
2017-11-16T23:11:17.405Z,25.70
2017-11-16T23:13:46.765Z,25.70
2017-11-16T23:16:15.021Z,25.70
2017-11-16T23:18:43.185Z,25.70
2017-11-16T23:21:11.383Z,25.70
2017-11-16T23:23:39.569Z,25.60
2017-11-16T23:26:07.633Z,25.50
2017-11-16T23:28:36.212Z,25.60
2017-11-16T23:31:04.985Z,25.50
2017-11-16T23:33:33.621Z,25.60
2017-11-16T23:36:01.695Z,25.60
2017-11-16T23:38:29.969Z,25.50
2017-11-16T23:40:58.118Z,25.50
2017-11-16T23:43:27.042Z,25.50
2017-11-16T23:45:55.778Z,25.50
